sensor_id;sensor_type;location;lat;lon;timestamp;temperature;humidity
21298;DHT22;10808;48.010;11.326;2022-10-30T00:00:29;13.90;99.90
21298;DHT22;10808;48.010;11.326;2022-10-30T00:02:55;13.80;99.90
21298;DHT22;10808;48.010;11.326;2022-10-30T00:05:21;13.80;99.90
21298;DHT22;10808;48.010;11.326;2022-10-30T00:07:48;13.90;99.90
21298;DHT22;10808;48.010;11.326;2022-10-30T00:10:16;13.80;99.90
21298;DHT22;10808;48.010;11.326;2022-10-30T00:12:42;13.80;99.90
21298;DHT22;10808;48.010;11.326;2022-10-30T00:15:09;13.70;99.90
21298;DHT22;10808;48.010;11.326;2022-10-30T00:17:35;13.70;99.90
21298;DHT22;10808;48.010;11.326;2022-10-30T00:20:01;13.70;99.90
21298;DHT22;10808;48.010;11.326;2022-10-30T00:22:27;13.70;99.90
21298;DHT22;10808;48.010;11.326;2022-10-30T00:24:53;13.70;99.90
21298;DHT22;10808;48.010;11.326;2022-10-30T00:27:19;13.70;99.90
21298;DHT22;10808;48.010;11.326;2022-10-30T00:29:45;13.70;99.90
21298;DHT22;10808;48.010;11.326;2022-10-30T00:32:11;13.70;99.90
21298;DHT22;10808;48.010;11.326;2022-10-30T00:34:37;13.70;99.90
21298;DHT22;10808;48.010;11.326;2022-10-30T00:37:03;13.70;99.90
21298;DHT22;10808;48.010;11.326;2022-10-30T00:39:29;13.70;99.90
21298;DHT22;10808;48.010;11.326;2022-10-30T00:41:55;13.60;99.90
21298;DHT22;10808;48.010;11.326;2022-10-30T00:44:35;13.70;99.90
21298;DHT22;10808;48.010;11.326;2022-10-30T00:47:05;13.60;99.90
21298;DHT22;10808;48.010;11.326;2022-10-30T00:49:36;13.60;99.90
21298;DHT22;10808;48.010;11.326;2022-10-30T00:52:04;13.60;99.90
21298;DHT22;10808;48.010;11.326;2022-10-30T00:54:33;13.60;99.90
21298;DHT22;10808;48.010;11.326;2022-10-30T00:57:02;13.60;99.90
21298;DHT22;10808;48.010;11.326;2022-10-30T00:59:32;13.60;99.90
21298;DHT22;10808;48.010;11.326;2022-10-30T01:02:01;13.60;99.90
21298;DHT22;10808;48.010;11.326;2022-10-30T01:04:28;13.60;99.90
21298;DHT22;10808;48.010;11.326;2022-10-30T01:06:56;13.50;99.90
21298;DHT22;10808;48.010;11.326;2022-10-30T01:09:23;13.50;99.90
21298;DHT22;10808;48.010;11.326;2022-10-30T01:11:49;13.50;99.90
21298;DHT22;10808;48.010;11.326;2022-10-30T01:14:17;13.50;99.90
21298;DHT22;10808;48.010;11.326;2022-10-30T01:19:21;13.50;99.90
21298;DHT22;10808;48.010;11.326;2022-10-30T01:30:38;13.40;99.90
21298;DHT22;10808;48.010;11.326;2022-10-30T01:33:22;13.40;99.90
21298;DHT22;10808;48.010;11.326;2022-10-30T01:38:53;13.40;99.90
21298;DHT22;10808;48.010;11.326;2022-10-30T01:41:21;13.40;99.90
21298;DHT22;10808;48.010;11.326;2022-10-30T01:43:52;13.30;99.90
21298;DHT22;10808;48.010;11.326;2022-10-30T01:52:36;13.30;99.90
21298;DHT22;10808;48.010;11.326;2022-10-30T01:57:48;13.30;99.90
21298;DHT22;10808;48.010;11.326;2022-10-30T02:00:16;13.30;99.90
21298;DHT22;10808;48.010;11.326;2022-10-30T02:02:45;13.30;99.90
21298;DHT22;10808;48.010;11.326;2022-10-30T02:05:24;13.30;99.90
21298;DHT22;10808;48.010;11.326;2022-10-30T02:07:52;13.20;99.90
21298;DHT22;10808;48.010;11.326;2022-10-30T02:10:18;13.30;99.90
21298;DHT22;10808;48.010;11.326;2022-10-30T02:12:44;13.20;99.90
21298;DHT22;10808;48.010;11.326;2022-10-30T02:15:11;13.30;99.90
21298;DHT22;10808;48.010;11.326;2022-10-30T02:17:37;13.30;99.90
21298;DHT22;10808;48.010;11.326;2022-10-30T02:20:06;13.30;99.90
21298;DHT22;10808;48.010;11.326;2022-10-30T02:22:32;13.30;99.90
21298;DHT22;10808;48.010;11.326;2022-10-30T02:24:58;13.20;99.90
21298;DHT22;10808;48.010;11.326;2022-10-30T02:27:24;13.20;99.90
21298;DHT22;10808;48.010;11.326;2022-10-30T02:29:50;13.20;99.90
21298;DHT22;10808;48.010;11.326;2022-10-30T02:32:16;13.20;99.90
21298;DHT22;10808;48.010;11.326;2022-10-30T02:34:42;13.10;99.90
21298;DHT22;10808;48.010;11.326;2022-10-30T02:37:09;13.10;99.90
21298;DHT22;10808;48.010;11.326;2022-10-30T02:39:35;13.10;99.90
21298;DHT22;10808;48.010;11.326;2022-10-30T02:42:01;13.10;99.90
21298;DHT22;10808;48.010;11.326;2022-10-30T02:44:27;13.00;99.90
21298;DHT22;10808;48.010;11.326;2022-10-30T02:46:53;13.00;99.90
21298;DHT22;10808;48.010;11.326;2022-10-30T02:49:19;13.00;99.90
21298;DHT22;10808;48.010;11.326;2022-10-30T02:51:45;12.90;99.90
21298;DHT22;10808;48.010;11.326;2022-10-30T02:54:11;12.90;99.90
21298;DHT22;10808;48.010;11.326;2022-10-30T02:56:39;12.80;99.90
21298;DHT22;10808;48.010;11.326;2022-10-30T02:59:05;12.80;99.90
21298;DHT22;10808;48.010;11.326;2022-10-30T03:01:31;12.80;99.90
21298;DHT22;10808;48.010;11.326;2022-10-30T03:03:57;12.80;99.90
21298;DHT22;10808;48.010;11.326;2022-10-30T03:06:24;12.80;99.90
21298;DHT22;10808;48.010;11.326;2022-10-30T03:08:50;12.70;99.90
21298;DHT22;10808;48.010;11.326;2022-10-30T03:11:18;12.70;99.90
21298;DHT22;10808;48.010;11.326;2022-10-30T03:13:45;12.70;99.90
21298;DHT22;10808;48.010;11.326;2022-10-30T03:16:17;12.60;99.90
21298;DHT22;10808;48.010;11.326;2022-10-30T03:18:44;12.60;99.90
21298;DHT22;10808;48.010;11.326;2022-10-30T03:21:13;12.50;99.90
21298;DHT22;10808;48.010;11.326;2022-10-30T03:23:39;12.50;99.90
21298;DHT22;10808;48.010;11.326;2022-10-30T03:26:06;12.50;99.90
21298;DHT22;10808;48.010;11.326;2022-10-30T03:28:32;12.50;99.90
21298;DHT22;10808;48.010;11.326;2022-10-30T03:31:10;12.50;99.90
21298;DHT22;10808;48.010;11.326;2022-10-30T03:33:37;12.40;99.90
21298;DHT22;10808;48.010;11.326;2022-10-30T03:36:05;12.40;99.90
21298;DHT22;10808;48.010;11.326;2022-10-30T03:38:32;12.30;99.90
21298;DHT22;10808;48.010;11.326;2022-10-30T03:40:58;12.30;99.90
21298;DHT22;10808;48.010;11.326;2022-10-30T03:43:24;12.30;99.90
21298;DHT22;10808;48.010;11.326;2022-10-30T03:45:52;12.30;99.90
21298;DHT22;10808;48.010;11.326;2022-10-30T03:48:20;12.30;99.90
21298;DHT22;10808;48.010;11.326;2022-10-30T03:50:47;12.20;99.90
21298;DHT22;10808;48.010;11.326;2022-10-30T03:53:13;12.20;99.90
21298;DHT22;10808;48.010;11.326;2022-10-30T03:55:40;12.20;99.90
21298;DHT22;10808;48.010;11.326;2022-10-30T03:58:06;12.20;99.90
21298;DHT22;10808;48.010;11.326;2022-10-30T04:00:34;12.20;99.90
21298;DHT22;10808;48.010;11.326;2022-10-30T04:03:00;12.10;99.90
21298;DHT22;10808;48.010;11.326;2022-10-30T04:05:27;12.10;99.90
21298;DHT22;10808;48.010;11.326;2022-10-30T04:07:58;12.10;99.90
21298;DHT22;10808;48.010;11.326;2022-10-30T04:10:25;12.10;99.90
21298;DHT22;10808;48.010;11.326;2022-10-30T04:12:51;12.00;99.90
21298;DHT22;10808;48.010;11.326;2022-10-30T04:15:17;12.00;99.90
21298;DHT22;10808;48.010;11.326;2022-10-30T04:17:48;12.00;99.90
21298;DHT22;10808;48.010;11.326;2022-10-30T04:20:15;12.00;99.90
21298;DHT22;10808;48.010;11.326;2022-10-30T04:22:41;11.90;99.90
21298;DHT22;10808;48.010;11.326;2022-10-30T04:25:07;11.90;99.90
21298;DHT22;10808;48.010;11.326;2022-10-30T04:27:43;11.90;99.90
21298;DHT22;10808;48.010;11.326;2022-10-30T04:30:11;11.90;99.90
21298;DHT22;10808;48.010;11.326;2022-10-30T04:32:48;11.80;99.90
21298;DHT22;10808;48.010;11.326;2022-10-30T04:35:15;11.80;99.90
21298;DHT22;10808;48.010;11.326;2022-10-30T04:37:42;11.70;99.90
21298;DHT22;10808;48.010;11.326;2022-10-30T04:40:08;11.70;99.90
21298;DHT22;10808;48.010;11.326;2022-10-30T04:42:34;11.70;99.90
21298;DHT22;10808;48.010;11.326;2022-10-30T04:45:01;11.70;99.90
21298;DHT22;10808;48.010;11.326;2022-10-30T04:47:28;11.70;99.90
21298;DHT22;10808;48.010;11.326;2022-10-30T04:49:54;11.70;99.90
21298;DHT22;10808;48.010;11.326;2022-10-30T04:52:20;11.60;99.90
21298;DHT22;10808;48.010;11.326;2022-10-30T04:54:46;11.60;99.90
21298;DHT22;10808;48.010;11.326;2022-10-30T04:57:12;11.60;99.90
21298;DHT22;10808;48.010;11.326;2022-10-30T04:59:38;11.50;99.90
21298;DHT22;10808;48.010;11.326;2022-10-30T05:02:04;11.50;99.90
21298;DHT22;10808;48.010;11.326;2022-10-30T05:04:30;11.50;99.90
21298;DHT22;10808;48.010;11.326;2022-10-30T05:06:56;11.50;99.90
21298;DHT22;10808;48.010;11.326;2022-10-30T05:09:22;11.50;99.90
21298;DHT22;10808;48.010;11.326;2022-10-30T05:11:48;11.40;99.90
21298;DHT22;10808;48.010;11.326;2022-10-30T05:14:14;11.40;99.90
21298;DHT22;10808;48.010;11.326;2022-10-30T05:16:40;11.40;99.90
21298;DHT22;10808;48.010;11.326;2022-10-30T05:19:06;11.40;99.90
21298;DHT22;10808;48.010;11.326;2022-10-30T05:21:32;11.40;99.90
21298;DHT22;10808;48.010;11.326;2022-10-30T05:23:58;11.50;99.90
21298;DHT22;10808;48.010;11.326;2022-10-30T05:26:24;11.30;99.90
21298;DHT22;10808;48.010;11.326;2022-10-30T05:28:50;11.30;99.90
21298;DHT22;10808;48.010;11.326;2022-10-30T05:31:16;11.30;99.90
21298;DHT22;10808;48.010;11.326;2022-10-30T05:33:42;11.30;99.90
21298;DHT22;10808;48.010;11.326;2022-10-30T05:36:08;11.30;99.90
21298;DHT22;10808;48.010;11.326;2022-10-30T05:38:34;11.30;99.90
21298;DHT22;10808;48.010;11.326;2022-10-30T05:41:00;11.20;99.90
21298;DHT22;10808;48.010;11.326;2022-10-30T05:43:26;11.20;99.90
21298;DHT22;10808;48.010;11.326;2022-10-30T05:45:52;11.20;99.90
21298;DHT22;10808;48.010;11.326;2022-10-30T05:48:18;11.20;99.90
21298;DHT22;10808;48.010;11.326;2022-10-30T05:50:44;11.10;99.90
21298;DHT22;10808;48.010;11.326;2022-10-30T05:53:10;11.10;99.90
21298;DHT22;10808;48.010;11.326;2022-10-30T05:55:37;11.10;99.90
21298;DHT22;10808;48.010;11.326;2022-10-30T05:58:05;11.20;99.90
21298;DHT22;10808;48.010;11.326;2022-10-30T06:00:33;11.10;99.90
21298;DHT22;10808;48.010;11.326;2022-10-30T06:03:00;11.10;99.90
21298;DHT22;10808;48.010;11.326;2022-10-30T06:05:29;11.10;99.90
21298;DHT22;10808;48.010;11.326;2022-10-30T06:07:55;11.10;99.90
21298;DHT22;10808;48.010;11.326;2022-10-30T06:10:23;11.10;99.90
21298;DHT22;10808;48.010;11.326;2022-10-30T06:12:57;11.10;99.90
21298;DHT22;10808;48.010;11.326;2022-10-30T06:15:24;11.10;99.90
21298;DHT22;10808;48.010;11.326;2022-10-30T06:17:50;11.10;99.90
21298;DHT22;10808;48.010;11.326;2022-10-30T06:20:17;11.10;99.90
21298;DHT22;10808;48.010;11.326;2022-10-30T06:23:00;11.10;99.90
21298;DHT22;10808;48.010;11.326;2022-10-30T06:25:28;11.10;99.90
21298;DHT22;10808;48.010;11.326;2022-10-30T06:27:54;11.20;99.90
21298;DHT22;10808;48.010;11.326;2022-10-30T06:30:21;11.10;99.90
21298;DHT22;10808;48.010;11.326;2022-10-30T06:32:47;11.20;99.90
21298;DHT22;10808;48.010;11.326;2022-10-30T06:35:14;11.20;99.90
21298;DHT22;10808;48.010;11.326;2022-10-30T06:37:47;11.20;99.90
21298;DHT22;10808;48.010;11.326;2022-10-30T06:40:13;11.20;99.90
21298;DHT22;10808;48.010;11.326;2022-10-30T06:42:47;11.20;99.90
21298;DHT22;10808;48.010;11.326;2022-10-30T06:45:15;11.20;99.90
21298;DHT22;10808;48.010;11.326;2022-10-30T06:47:41;11.30;99.90
21298;DHT22;10808;48.010;11.326;2022-10-30T06:50:10;11.30;99.90
21298;DHT22;10808;48.010;11.326;2022-10-30T06:52:36;11.30;99.90
21298;DHT22;10808;48.010;11.326;2022-10-30T06:55:04;11.40;99.90
21298;DHT22;10808;48.010;11.326;2022-10-30T06:57:31;11.40;99.90
21298;DHT22;10808;48.010;11.326;2022-10-30T06:59:57;11.40;99.90
21298;DHT22;10808;48.010;11.326;2022-10-30T07:02:23;11.40;99.90
21298;DHT22;10808;48.010;11.326;2022-10-30T07:04:49;11.50;99.90
21298;DHT22;10808;48.010;11.326;2022-10-30T07:07:16;11.50;99.90
21298;DHT22;10808;48.010;11.326;2022-10-30T07:09:42;11.60;99.90
21298;DHT22;10808;48.010;11.326;2022-10-30T07:12:08;11.70;99.90
21298;DHT22;10808;48.010;11.326;2022-10-30T07:14:35;11.70;99.90
21298;DHT22;10808;48.010;11.326;2022-10-30T07:17:01;11.80;99.90
21298;DHT22;10808;48.010;11.326;2022-10-30T07:19:27;11.80;99.90
21298;DHT22;10808;48.010;11.326;2022-10-30T07:21:53;11.90;99.90
21298;DHT22;10808;48.010;11.326;2022-10-30T07:24:19;12.00;99.90
21298;DHT22;10808;48.010;11.326;2022-10-30T07:26:45;12.00;99.90
21298;DHT22;10808;48.010;11.326;2022-10-30T07:29:11;12.10;99.90
21298;DHT22;10808;48.010;11.326;2022-10-30T07:31:38;12.20;99.90
21298;DHT22;10808;48.010;11.326;2022-10-30T07:34:04;12.20;99.90
21298;DHT22;10808;48.010;11.326;2022-10-30T07:36:30;12.40;99.90
21298;DHT22;10808;48.010;11.326;2022-10-30T07:38:56;12.50;99.90
21298;DHT22;10808;48.010;11.326;2022-10-30T07:41:23;12.50;99.90
21298;DHT22;10808;48.010;11.326;2022-10-30T07:43:49;12.60;99.90
21298;DHT22;10808;48.010;11.326;2022-10-30T07:46:15;12.60;99.90
21298;DHT22;10808;48.010;11.326;2022-10-30T07:48:41;12.70;99.90
21298;DHT22;10808;48.010;11.326;2022-10-30T07:51:07;12.80;99.90
21298;DHT22;10808;48.010;11.326;2022-10-30T07:53:33;12.90;99.90
21298;DHT22;10808;48.010;11.326;2022-10-30T07:55:59;13.00;99.90
21298;DHT22;10808;48.010;11.326;2022-10-30T07:58:25;13.00;99.90
21298;DHT22;10808;48.010;11.326;2022-10-30T08:00:51;13.10;99.90
21298;DHT22;10808;48.010;11.326;2022-10-30T08:03:17;13.10;99.90
21298;DHT22;10808;48.010;11.326;2022-10-30T08:05:43;13.20;99.90
21298;DHT22;10808;48.010;11.326;2022-10-30T08:08:09;13.30;99.90
21298;DHT22;10808;48.010;11.326;2022-10-30T08:10:35;13.40;99.90
21298;DHT22;10808;48.010;11.326;2022-10-30T08:13:02;13.40;99.90
21298;DHT22;10808;48.010;11.326;2022-10-30T08:15:28;13.50;99.90
21298;DHT22;10808;48.010;11.326;2022-10-30T08:17:55;13.50;99.90
21298;DHT22;10808;48.010;11.326;2022-10-30T08:20:22;13.60;99.90
21298;DHT22;10808;48.010;11.326;2022-10-30T08:22:53;13.70;99.90
21298;DHT22;10808;48.010;11.326;2022-10-30T08:25:22;13.80;99.90
21298;DHT22;10808;48.010;11.326;2022-10-30T08:27:54;13.90;99.90
21298;DHT22;10808;48.010;11.326;2022-10-30T08:30:21;14.00;99.90
21298;DHT22;10808;48.010;11.326;2022-10-30T08:32:47;14.20;99.90
21298;DHT22;10808;48.010;11.326;2022-10-30T08:35:13;14.30;99.90
21298;DHT22;10808;48.010;11.326;2022-10-30T08:37:41;14.40;99.90
21298;DHT22;10808;48.010;11.326;2022-10-30T08:40:09;14.50;99.90
21298;DHT22;10808;48.010;11.326;2022-10-30T08:42:35;14.60;99.90
21298;DHT22;10808;48.010;11.326;2022-10-30T08:45:01;14.80;99.90
21298;DHT22;10808;48.010;11.326;2022-10-30T08:47:27;15.00;99.90
21298;DHT22;10808;48.010;11.326;2022-10-30T08:49:54;15.10;99.90
21298;DHT22;10808;48.010;11.326;2022-10-30T08:52:20;15.30;99.90
21298;DHT22;10808;48.010;11.326;2022-10-30T08:54:46;15.50;99.90
21298;DHT22;10808;48.010;11.326;2022-10-30T08:57:12;15.60;99.90
21298;DHT22;10808;48.010;11.326;2022-10-30T08:59:38;15.80;99.90
21298;DHT22;10808;48.010;11.326;2022-10-30T09:02:04;16.10;99.90
21298;DHT22;10808;48.010;11.326;2022-10-30T09:04:32;16.30;99.90
21298;DHT22;10808;48.010;11.326;2022-10-30T09:07:00;16.50;99.90
21298;DHT22;10808;48.010;11.326;2022-10-30T09:09:26;16.70;99.90
21298;DHT22;10808;48.010;11.326;2022-10-30T09:11:52;17.00;99.90
21298;DHT22;10808;48.010;11.326;2022-10-30T09:14:18;17.30;99.90
21298;DHT22;10808;48.010;11.326;2022-10-30T09:16:44;17.60;99.90
21298;DHT22;10808;48.010;11.326;2022-10-30T09:19:10;17.80;99.90
21298;DHT22;10808;48.010;11.326;2022-10-30T09:21:36;18.10;99.90
21298;DHT22;10808;48.010;11.326;2022-10-30T09:24:02;18.30;99.90
21298;DHT22;10808;48.010;11.326;2022-10-30T09:26:29;18.60;99.90
21298;DHT22;10808;48.010;11.326;2022-10-30T09:28:55;18.90;99.90
21298;DHT22;10808;48.010;11.326;2022-10-30T09:31:21;19.30;99.90
21298;DHT22;10808;48.010;11.326;2022-10-30T09:33:47;19.50;99.90
21298;DHT22;10808;48.010;11.326;2022-10-30T09:36:13;19.70;99.90
21298;DHT22;10808;48.010;11.326;2022-10-30T09:38:39;20.00;99.90
21298;DHT22;10808;48.010;11.326;2022-10-30T09:44:47;20.70;99.90
21298;DHT22;10808;48.010;11.326;2022-10-30T09:47:21;21.10;99.90
21298;DHT22;10808;48.010;11.326;2022-10-30T09:50:02;21.40;99.90
21298;DHT22;10808;48.010;11.326;2022-10-30T09:52:38;21.60;99.90
21298;DHT22;10808;48.010;11.326;2022-10-30T09:55:13;21.90;99.90
21298;DHT22;10808;48.010;11.326;2022-10-30T09:57:56;22.10;99.90
21298;DHT22;10808;48.010;11.326;2022-10-30T10:00:32;22.20;99.90
21298;DHT22;10808;48.010;11.326;2022-10-30T10:05:55;22.60;99.20
21298;DHT22;10808;48.010;11.326;2022-10-30T10:08:28;22.70;98.30
21298;DHT22;10808;48.010;11.326;2022-10-30T10:11:00;22.90;98.50
21298;DHT22;10808;48.010;11.326;2022-10-30T10:13:52;23.20;99.20
21298;DHT22;10808;48.010;11.326;2022-10-30T10:16:26;23.40;97.70
21298;DHT22;10808;48.010;11.326;2022-10-30T10:19:14;23.70;98.30
21298;DHT22;10808;48.010;11.326;2022-10-30T10:21:47;23.90;98.40
21298;DHT22;10808;48.010;11.326;2022-10-30T10:24:21;24.20;97.40
21298;DHT22;10808;48.010;11.326;2022-10-30T10:26:52;24.40;97.10
21298;DHT22;10808;48.010;11.326;2022-10-30T10:32:10;24.70;94.80
21298;DHT22;10808;48.010;11.326;2022-10-30T10:35:49;24.90;94.90
21298;DHT22;10808;48.010;11.326;2022-10-30T10:37:53;25.30;95.80
21298;DHT22;10808;48.010;11.326;2022-10-30T10:43:30;25.80;94.00
21298;DHT22;10808;48.010;11.326;2022-10-30T10:52:16;26.30;91.60
21298;DHT22;10808;48.010;11.326;2022-10-30T10:54:56;26.40;92.80
21298;DHT22;10808;48.010;11.326;2022-10-30T10:57:32;26.50;91.60
21298;DHT22;10808;48.010;11.326;2022-10-30T11:00:03;26.50;92.00
21298;DHT22;10808;48.010;11.326;2022-10-30T11:02:34;26.50;93.90
21298;DHT22;10808;48.010;11.326;2022-10-30T11:05:26;26.70;92.40
21298;DHT22;10808;48.010;11.326;2022-10-30T11:08:00;26.80;93.00
21298;DHT22;10808;48.010;11.326;2022-10-30T11:10:28;27.00;93.70
21298;DHT22;10808;48.010;11.326;2022-10-30T11:12:54;27.00;91.40
21298;DHT22;10808;48.010;11.326;2022-10-30T11:15:28;27.00;92.70
21298;DHT22;10808;48.010;11.326;2022-10-30T11:18:01;26.90;93.10
21298;DHT22;10808;48.010;11.326;2022-10-30T11:23:41;26.50;91.70
21298;DHT22;10808;48.010;11.326;2022-10-30T11:26:29;26.40;92.90
21298;DHT22;10808;48.010;11.326;2022-10-30T11:29:14;26.40;92.70
21298;DHT22;10808;48.010;11.326;2022-10-30T11:31:44;26.40;92.70
21298;DHT22;10808;48.010;11.326;2022-10-30T11:36:51;26.30;91.10
21298;DHT22;10808;48.010;11.326;2022-10-30T11:39:20;26.10;91.30
21298;DHT22;10808;48.010;11.326;2022-10-30T11:42:13;26.00;91.40
21298;DHT22;10808;48.010;11.326;2022-10-30T11:44:50;26.00;91.70
21298;DHT22;10808;48.010;11.326;2022-10-30T11:47:19;26.00;91.40
21298;DHT22;10808;48.010;11.326;2022-10-30T11:49:56;25.90;91.40
21298;DHT22;10808;48.010;11.326;2022-10-30T11:52:25;25.90;91.50
21298;DHT22;10808;48.010;11.326;2022-10-30T11:54:55;25.80;91.30
21298;DHT22;10808;48.010;11.326;2022-10-30T11:57:27;25.80;92.00
21298;DHT22;10808;48.010;11.326;2022-10-30T11:59:55;25.70;91.40
21298;DHT22;10808;48.010;11.326;2022-10-30T12:02:25;25.60;92.00
21298;DHT22;10808;48.010;11.326;2022-10-30T12:05:00;25.50;92.10
21298;DHT22;10808;48.010;11.326;2022-10-30T12:07:31;25.30;91.40
21298;DHT22;10808;48.010;11.326;2022-10-30T12:09:58;25.20;91.50
21298;DHT22;10808;48.010;11.326;2022-10-30T12:12:31;25.10;92.00
21298;DHT22;10808;48.010;11.326;2022-10-30T12:17:40;25.10;91.40
21298;DHT22;10808;48.010;11.326;2022-10-30T12:20:15;25.00;91.60
21298;DHT22;10808;48.010;11.326;2022-10-30T12:22:41;24.90;91.80
21298;DHT22;10808;48.010;11.326;2022-10-30T12:25:23;24.90;92.00
21298;DHT22;10808;48.010;11.326;2022-10-30T12:27:50;24.90;91.60
21298;DHT22;10808;48.010;11.326;2022-10-30T12:30:23;24.90;91.40
21298;DHT22;10808;48.010;11.326;2022-10-30T12:33:17;24.80;92.10
21298;DHT22;10808;48.010;11.326;2022-10-30T12:35:47;24.80;91.40
21298;DHT22;10808;48.010;11.326;2022-10-30T12:38:36;24.80;92.60
21298;DHT22;10808;48.010;11.326;2022-10-30T12:41:24;24.80;92.70
21298;DHT22;10808;48.010;11.326;2022-10-30T12:49:12;24.70;91.80
21298;DHT22;10808;48.010;11.326;2022-10-30T12:54:32;24.70;89.20
21298;DHT22;10808;48.010;11.326;2022-10-30T12:57:07;24.60;87.60
21298;DHT22;10808;48.010;11.326;2022-10-30T12:59:50;24.70;86.30
21298;DHT22;10808;48.010;11.326;2022-10-30T13:02:35;24.80;87.90
21298;DHT22;10808;48.010;11.326;2022-10-30T13:08:09;24.70;90.30
21298;DHT22;10808;48.010;11.326;2022-10-30T13:11:26;24.70;87.40
21298;DHT22;10808;48.010;11.326;2022-10-30T13:13:48;24.70;88.10
21298;DHT22;10808;48.010;11.326;2022-10-30T13:16:35;24.70;89.20
21298;DHT22;10808;48.010;11.326;2022-10-30T13:19:01;24.70;90.40
21298;DHT22;10808;48.010;11.326;2022-10-30T13:24:04;24.80;91.10
21298;DHT22;10808;48.010;11.326;2022-10-30T13:26:52;24.80;91.40
21298;DHT22;10808;48.010;11.326;2022-10-30T13:34:49;24.90;92.20
21298;DHT22;10808;48.010;11.326;2022-10-30T13:40:33;25.00;93.00
21298;DHT22;10808;48.010;11.326;2022-10-30T13:43:28;25.00;92.60
21298;DHT22;10808;48.010;11.326;2022-10-30T13:51:42;25.50;92.60
21298;DHT22;10808;48.010;11.326;2022-10-30T13:54:22;25.60;92.30
21298;DHT22;10808;48.010;11.326;2022-10-30T13:56:50;25.70;92.60
21298;DHT22;10808;48.010;11.326;2022-10-30T14:02:04;25.90;91.70
21298;DHT22;10808;48.010;11.326;2022-10-30T14:04:51;26.00;92.70
21298;DHT22;10808;48.010;11.326;2022-10-30T14:12:49;26.00;92.40
21298;DHT22;10808;48.010;11.326;2022-10-30T14:15:32;25.90;92.60
21298;DHT22;10808;48.010;11.326;2022-10-30T14:20:40;25.70;93.10
21298;DHT22;10808;48.010;11.326;2022-10-30T14:23:36;25.60;93.30
21298;DHT22;10808;48.010;11.326;2022-10-30T14:28:32;25.40;93.90
21298;DHT22;10808;48.010;11.326;2022-10-30T14:56:02;24.50;96.40
21298;DHT22;10808;48.010;11.326;2022-10-30T14:58:35;24.40;96.60
21298;DHT22;10808;48.010;11.326;2022-10-30T15:04:13;24.20;97.10
21298;DHT22;10808;48.010;11.326;2022-10-30T15:07:04;24.00;96.40
21298;DHT22;10808;48.010;11.326;2022-10-30T15:10:05;23.90;96.40
21298;DHT22;10808;48.010;11.326;2022-10-30T15:12:54;23.70;96.20
21298;DHT22;10808;48.010;11.326;2022-10-30T15:15:23;23.70;96.60
21298;DHT22;10808;48.010;11.326;2022-10-30T15:17:52;23.60;96.00
21298;DHT22;10808;48.010;11.326;2022-10-30T15:20:29;23.60;96.40
21298;DHT22;10808;48.010;11.326;2022-10-30T15:23:00;23.50;96.50
21298;DHT22;10808;48.010;11.326;2022-10-30T15:25:33;23.40;96.60
21298;DHT22;10808;48.010;11.326;2022-10-30T15:28:00;23.20;96.60
21298;DHT22;10808;48.010;11.326;2022-10-30T15:30:27;23.10;96.70
21298;DHT22;10808;48.010;11.326;2022-10-30T15:32:54;23.00;96.50
21298;DHT22;10808;48.010;11.326;2022-10-30T15:35:27;22.90;96.90
21298;DHT22;10808;48.010;11.326;2022-10-30T15:38:05;22.90;97.60
21298;DHT22;10808;48.010;11.326;2022-10-30T15:40:33;22.80;97.10
21298;DHT22;10808;48.010;11.326;2022-10-30T15:43:02;22.60;97.10
21298;DHT22;10808;48.010;11.326;2022-10-30T15:45:34;22.50;97.20
21298;DHT22;10808;48.010;11.326;2022-10-30T15:50:58;22.30;97.30
21298;DHT22;10808;48.010;11.326;2022-10-30T15:53:39;22.20;97.20
21298;DHT22;10808;48.010;11.326;2022-10-30T15:59:00;22.10;97.80
21298;DHT22;10808;48.010;11.326;2022-10-30T16:01:36;22.00;98.10
21298;DHT22;10808;48.010;11.326;2022-10-30T16:04:31;21.90;98.30
21298;DHT22;10808;48.010;11.326;2022-10-30T16:07:01;21.80;98.60
21298;DHT22;10808;48.010;11.326;2022-10-30T16:12:42;21.60;98.50
21298;DHT22;10808;48.010;11.326;2022-10-30T16:15:26;21.40;98.60
21298;DHT22;10808;48.010;11.326;2022-10-30T16:20:28;21.20;99.30
21298;DHT22;10808;48.010;11.326;2022-10-30T16:22:54;21.10;99.10
21298;DHT22;10808;48.010;11.326;2022-10-30T16:25:20;21.10;99.40
21298;DHT22;10808;48.010;11.326;2022-10-30T16:27:46;21.00;99.50
21298;DHT22;10808;48.010;11.326;2022-10-30T16:30:14;20.90;99.60
21298;DHT22;10808;48.010;11.326;2022-10-30T16:32:43;20.80;99.70
21298;DHT22;10808;48.010;11.326;2022-10-30T16:35:16;20.60;99.90
21298;DHT22;10808;48.010;11.326;2022-10-30T16:37:44;20.40;99.90
21298;DHT22;10808;48.010;11.326;2022-10-30T16:40:23;20.20;99.90
21298;DHT22;10808;48.010;11.326;2022-10-30T16:42:55;20.10;99.90
21298;DHT22;10808;48.010;11.326;2022-10-30T16:48:00;19.70;99.90
21298;DHT22;10808;48.010;11.326;2022-10-30T16:50:37;19.60;99.90
21298;DHT22;10808;48.010;11.326;2022-10-30T16:53:22;19.60;99.90
21298;DHT22;10808;48.010;11.326;2022-10-30T16:55:49;19.40;99.90
21298;DHT22;10808;48.010;11.326;2022-10-30T16:58:16;19.30;99.90
21298;DHT22;10808;48.010;11.326;2022-10-30T17:00:49;19.20;99.90
21298;DHT22;10808;48.010;11.326;2022-10-30T17:03:18;19.10;99.90
21298;DHT22;10808;48.010;11.326;2022-10-30T17:06:00;19.00;99.90
21298;DHT22;10808;48.010;11.326;2022-10-30T17:08:42;18.80;99.90
21298;DHT22;10808;48.010;11.326;2022-10-30T17:11:19;18.80;99.90
21298;DHT22;10808;48.010;11.326;2022-10-30T17:16:34;18.50;99.90
21298;DHT22;10808;48.010;11.326;2022-10-30T17:21:59;18.30;99.90
21298;DHT22;10808;48.010;11.326;2022-10-30T17:24:33;18.10;99.90
21298;DHT22;10808;48.010;11.326;2022-10-30T17:27:02;18.00;99.90
21298;DHT22;10808;48.010;11.326;2022-10-30T17:33:00;17.80;99.90
21298;DHT22;10808;48.010;11.326;2022-10-30T17:35:14;17.70;99.90
21298;DHT22;10808;48.010;11.326;2022-10-30T17:37:40;17.60;99.90
21298;DHT22;10808;48.010;11.326;2022-10-30T17:40:07;17.50;99.90
21298;DHT22;10808;48.010;11.326;2022-10-30T17:42:33;17.50;99.90
21298;DHT22;10808;48.010;11.326;2022-10-30T17:44:59;17.40;99.90
21298;DHT22;10808;48.010;11.326;2022-10-30T17:47:26;17.30;99.90
21298;DHT22;10808;48.010;11.326;2022-10-30T17:49:53;17.20;99.90
21298;DHT22;10808;48.010;11.326;2022-10-30T17:52:19;17.10;99.90
21298;DHT22;10808;48.010;11.326;2022-10-30T17:54:46;17.10;99.90